Accueil
METAR-TAF:

METAR-TAF

Aéroports :

Funafuti, Tuvalu

latitude: 08-31S, longitude: 179-13E, altitude: 1 m

Observation

Le bulletin a été fait il y a 46 minutes, à 09:00 UTC
Vent calme
Température 29°C
Humidité 74%
Pression 1005 hPa
Visibilité 10 km ou plus
Nuages épars à une hauteur de 1900 ft, Cumulus congestus.
Ciel couvert à une hauteur de 30000 ft

METAR: NGFU 240900Z 00000KT 9999 SCT019TCU OVC300 29/24 Q1005

Heure: 21:46 (09:46 UTC)

Prévision

Le bulletin a été fait il y a 4 heures et 25 minutes, à 05:21 UTC
Prévision valable du 24 à 06 UTC au 25 à 06 UTC
Vent 7 kt de nord/nord-est
Visibilité 10 km ou plus
Nuages épars à une hauteur de 1900 ft
Probabilité 30% :
Temporairement
du 24 à 06 UTC au 24 à 12 UTC
Visibilité: 5000 m
Quelques nuages à une hauteur de 1800 ft, Cumulonimbus.
orage, pluie

TAF: NGFU 240521Z 2406/2506 03007KT 9999 SCT019 PROB30 TEMPO 2406/2412 5000 TSRA FEW018CB

Observations et prévisions météorologiques de plus de 4000 aéroports (messages METAR et TAF).

Les stations disponibles sont représentées par des disques jaunes et rouges sur la carte.

Passer la souris dessus pour voir le nom de la station.

Cliquer dessus pour voir les observations et prévisions météorologiques.

Pour changer de carte: cliquez sur les boutons verts avec une croix noire pour zoomer, sur le bouton vert avec un tiret pour effectuer un zoom arrière, ou sur les flèches vertes pour les cartes adjacentes.


METAR-TAF: